Time;durP1;ratioP1;P1;durP2;ratioP2;P2;SDS_P1;SDS_P2;PMS_P1;PMS_P2;Temp;Humidity;BMP_temperature;BMP_pressure;BME280_temperature;BME280_humidity;BME280_pressure;Samples;Min_cycle;Max_cycle;Signal;HPM_P1;HPM_P2
2022/04/10 00:01:21;;;;;;;7.97;4.63;;;;;;;;;;5031766;28;20479;-47
2022/04/10 00:03:47;;;;;;;5.90;4.63;;;;;;;;;;5031789;28;20632;-49
2022/04/10 00:06:13;;;;;;;10.87;5.60;;;;;;;;;;5031882;28;20418;-45
2022/04/10 00:08:39;;;;;;;8.10;4.63;;;;;;;;;;5031812;28;20410;-45
2022/04/10 00:11:05;;;;;;;12.07;5.40;;;;;;;;;;5031793;28;20535;-46
2022/04/10 00:13:34;;;;;;;6.32;4.95;;;;;;;;;;5031579;28;20450;-45
2022/04/10 00:16:00;;;;;;;11.82;5.07;;;;;;;;;;5031809;28;20692;-47
2022/04/10 00:18:26;;;;;;;9.32;5.40;;;;;;;;;;5031726;28;20180;-48
2022/04/10 00:20:52;;;;;;;9.00;5.10;;;;;;;;;;5031552;28;20164;-49
2022/04/10 00:23:18;;;;;;;8.73;5.67;;;;;;;;;;5031517;28;20996;-44
2022/04/10 00:25:44;;;;;;;12.30;5.50;;;;;;;;;;5031762;28;20413;-46
2022/04/10 00:28:10;;;;;;;10.07;5.23;;;;;;;;;;5031668;28;20406;-45
2022/04/10 00:30:36;;;;;;;10.53;5.73;;;;;;;;;;5031515;28;20456;-46
2022/04/10 00:33:02;;;;;;;12.43;5.50;;;;;;;;;;5031299;28;20968;-46
2022/04/10 00:35:28;;;;;;;10.90;5.35;;;;;;;;;;5031635;28;20493;-46
2022/04/10 00:37:54;;;;;;;8.83;5.63;;;;;;;;;;5031562;28;20255;-46
2022/04/10 00:40:20;;;;;;;9.50;5.70;;;;;;;;;;5031342;28;20399;-46
2022/04/10 00:42:48;;;;;;;10.20;5.60;;;;;;;;;;5031579;28;20787;-47
2022/04/10 00:45:14;;;;;;;7.35;5.90;;;;;;;;;;5035489;28;20403;-45
2022/04/10 00:47:40;;;;;;;8.80;5.73;;;;;;;;;;5035418;28;20524;-45
2022/04/10 00:50:09;;;;;;;9.30;5.68;;;;;;;;;;5035236;28;20430;-46
2022/04/10 00:52:36;;;;;;;10.98;5.72;;;;;;;;;;5035270;28;20237;-47
2022/04/10 00:55:02;;;;;;;10.93;6.32;;;;;;;;;;5035373;28;20245;-46
2022/04/10 00:57:28;;;;;;;10.18;5.55;;;;;;;;;;5035248;28;20628;-47
2022/04/10 00:59:54;;;;;;;10.38;6.00;;;;;;;;;;5035031;28;20167;-46
2022/04/10 01:02:20;;;;;;;10.03;6.67;;;;;;;;;;5034010;28;20168;-48
2022/04/10 01:04:46;;;;;;;10.87;6.70;;;;;;;;;;5034557;28;20423;-48
2022/04/10 01:07:20;;;;;;;9.27;6.50;;;;;;;;;;5033444;28;20479;-47
2022/04/10 01:09:46;;;;;;;9.32;6.30;;;;;;;;;;5034689;28;20957;-47
2022/04/10 01:12:13;;;;;;;12.90;6.53;;;;;;;;;;5035042;28;20547;-48
2022/04/10 01:14:40;;;;;;;16.17;6.35;;;;;;;;;;5034833;28;20620;-47
2022/04/10 01:17:09;;;;;;;12.18;6.07;;;;;;;;;;5034941;28;20170;-47
2022/04/10 01:19:37;;;;;;;12.50;6.85;;;;;;;;;;5034664;28;20582;-47
2022/04/10 01:22:05;;;;;;;13.02;7.30;;;;;;;;;;5034650;28;20624;-47
2022/04/10 01:24:34;;;;;;;14.63;6.80;;;;;;;;;;5034798;28;20196;-47
2022/04/10 01:27:02;;;;;;;15.05;6.35;;;;;;;;;;5034783;28;20167;-48
2022/04/10 01:29:28;;;;;;;11.10;6.40;;;;;;;;;;5034386;28;20168;-47
2022/04/10 01:31:55;;;;;;;13.32;6.22;;;;;;;;;;5034489;28;20180;-46
2022/04/10 01:34:21;;;;;;;15.07;6.95;;;;;;;;;;5034523;28;20193;-47
2022/04/10 01:36:47;;;;;;;6.90;5.75;;;;;;;;;;5034568;28;20175;-46
2022/04/10 01:39:15;;;;;;;10.07;6.18;;;;;;;;;;5034398;28;20211;-47
2022/04/10 01:41:41;;;;;;;10.18;6.78;;;;;;;;;;5034236;28;20221;-48
2022/04/10 01:44:08;;;;;;;8.80;5.70;;;;;;;;;;5034336;28;20274;-48
2022/04/10 01:46:34;;;;;;;12.48;6.38;;;;;;;;;;5034471;28;21186;-49
2022/04/10 01:49:00;;;;;;;11.23;6.13;;;;;;;;;;5034272;28;20183;-49
2022/04/10 01:51:27;;;;;;;16.27;6.17;;;;;;;;;;5034163;28;20164;-49
2022/04/10 01:53:54;;;;;;;11.93;7.03;;;;;;;;;;5034059;28;20531;-48
2022/04/10 01:56:21;;;;;;;12.40;6.40;;;;;;;;;;5033310;28;20168;-48
2022/04/10 01:58:53;;;;;;;16.88;7.38;;;;;;;;;;5033850;28;20178;-48
2022/04/10 02:01:20;;;;;;;16.38;6.95;;;;;;;;;;5033945;28;20194;-49
2022/04/10 02:03:46;;;;;;;10.38;5.57;;;;;;;;;;5034049;28;20192;-48
2022/04/10 02:06:14;;;;;;;10.63;6.45;;;;;;;;;;5034037;28;20179;-48
2022/04/10 02:08:42;;;;;;;16.08;7.28;;;;;;;;;;5034005;28;20521;-48
2022/04/10 02:11:14;;;;;;;9.32;5.75;;;;;;;;;;5033761;28;20168;-48
2022/04/10 02:13:41;;;;;;;16.77;5.53;;;;;;;;;;5033709;28;20200;-49
2022/04/10 02:16:08;;;;;;;14.30;6.00;;;;;;;;;;5033910;28;20180;-49
2022/04/10 02:18:35;;;;;;;11.98;6.75;;;;;;;;;;5033885;28;20163;-49
2022/04/10 02:21:01;;;;;;;10.45;6.18;;;;;;;;;;5033546;28;20247;-48
2022/04/10 02:23:27;;;;;;;9.60;6.80;;;;;;;;;;5033610;28;20258;-48
2022/04/10 02:25:53;;;;;;;12.30;6.40;;;;;;;;;;5033666;28;20398;-48
2022/04/10 02:28:19;;;;;;;8.87;5.80;;;;;;;;;;5033669;28;20519;-47
2022/04/10 02:30:44;;;;;;;11.10;6.00;;;;;;;;;;5033429;28;20412;-48
2022/04/10 02:33:10;;;;;;;12.10;7.00;;;;;;;;;;5033347;28;20473;-50
2022/04/10 02:35:36;;;;;;;11.07;6.43;;;;;;;;;;5033499;28;20397;-48
2022/04/10 02:38:02;;;;;;;12.50;6.00;;;;;;;;;;5033591;28;20175;-47
2022/04/10 02:40:28;;;;;;;12.27;7.10;;;;;;;;;;5033063;28;20408;-48
2022/04/10 02:42:54;;;;;;;15.55;6.72;;;;;;;;;;5033267;28;20493;-47
2022/04/10 02:45:20;;;;;;;7.43;6.60;;;;;;;;;;5033323;28;20207;-48
2022/04/10 02:47:46;;;;;;;14.93;6.60;;;;;;;;;;5033313;28;20852;-48
2022/04/10 02:50:13;;;;;;;13.10;6.83;;;;;;;;;;5032875;28;20430;-47
2022/04/10 02:52:39;;;;;;;14.50;6.70;;;;;;;;;;5033005;28;20474;-48
2022/04/10 02:55:05;;;;;;;14.05;6.30;;;;;;;;;;5033034;28;20180;-49
2022/04/10 02:57:32;;;;;;;9.10;5.90;;;;;;;;;;5033269;28;20275;-48
2022/04/10 02:59:57;;;;;;;13.97;7.30;;;;;;;;;;5032863;28;20251;-48
2022/04/10 03:02:23;;;;;;;14.07;6.97;;;;;;;;;;5032904;28;20402;-48
2022/04/10 03:04:49;;;;;;;12.93;6.73;;;;;;;;;;5032830;28;20422;-48
2022/04/10 03:07:15;;;;;;;15.73;6.53;;;;;;;;;;5032774;28;20407;-47
2022/04/10 03:09:41;;;;;;;10.33;6.83;;;;;;;;;;5032588;28;20403;-47
2022/04/10 03:12:08;;;;;;;7.72;6.05;;;;;;;;;;5032676;28;20453;-48
2022/04/10 03:14:34;;;;;;;16.23;6.85;;;;;;;;;;5032695;28;20683;-48
2022/04/10 03:17:00;;;;;;;16.05;6.60;;;;;;;;;;5032867;28;20187;-48
2022/04/10 03:19:26;;;;;;;14.47;6.60;;;;;;;;;;5032542;28;20171;-48
2022/04/10 03:21:52;;;;;;;9.50;6.30;;;;;;;;;;5032454;28;20399;-48
2022/04/10 03:24:18;;;;;;;13.73;6.97;;;;;;;;;;5032473;28;20206;-47
2022/04/10 03:26:44;;;;;;;13.77;7.23;;;;;;;;;;5032597;28;20391;-49
2022/04/10 03:29:12;;;;;;;12.60;7.30;;;;;;;;;;5032458;28;20928;-47
2022/04/10 03:31:38;;;;;;;10.57;6.88;;;;;;;;;;5032363;28;20391;-49
2022/04/10 03:34:04;;;;;;;10.60;6.40;;;;;;;;;;5032283;28;20194;-47
2022/04/10 03:36:30;;;;;;;8.10;6.53;;;;;;;;;;5032315;28;20403;-48
2022/04/10 03:38:56;;;;;;;17.05;8.13;;;;;;;;;;5032359;28;20408;-48
2022/04/10 03:41:22;;;;;;;10.37;6.43;;;;;;;;;;5032161;28;20167;-49
2022/04/10 03:43:48;;;;;;;19.23;7.78;;;;;;;;;;5032185;28;20454;-49
2022/04/10 03:46:14;;;;;;;10.70;7.83;;;;;;;;;;5032265;28;20615;-49
2022/04/10 03:48:39;;;;;;;13.83;7.67;;;;;;;;;;5032268;28;20784;-50
2022/04/10 03:51:06;;;;;;;17.20;8.37;;;;;;;;;;5031900;28;20491;-48
2022/04/10 03:53:37;;;;;;;12.07;7.95;;;;;;;;;;5031815;28;20466;-48
2022/04/10 03:56:03;;;;;;;9.80;6.95;;;;;;;;;;5032239;28;20164;-48
2022/04/10 03:58:29;;;;;;;12.43;6.68;;;;;;;;;;5032173;28;20168;-48
2022/04/10 04:00:55;;;;;;;11.73;6.63;;;;;;;;;;5031797;28;20179;-48
2022/04/10 04:03:21;;;;;;;19.40;7.57;;;;;;;;;;5035229;28;20452;-49
2022/04/10 04:05:47;;;;;;;13.37;7.00;;;;;;;;;;5034765;28;20444;-49
2022/04/10 04:08:13;;;;;;;11.17;7.37;;;;;;;;;;5051851;28;20408;-49
2022/04/10 04:10:39;;;;;;;13.27;6.90;;;;;;;;;;5041429;28;20422;-48
2022/04/10 04:13:05;;;;;;;15.70;7.60;;;;;;;;;;5030304;28;20947;-48
2022/04/10 04:15:30;;;;;;;23.55;8.48;;;;;;;;;;5031798;28;20439;-47
2022/04/10 04:17:56;;;;;;;14.10;7.17;;;;;;;;;;5031084;28;20517;-48
2022/04/10 04:20:22;;;;;;;17.13;7.97;;;;;;;;;;5030885;28;20414;-47
2022/04/10 04:22:48;;;;;;;15.15;8.57;;;;;;;;;;5031528;28;20418;-49
2022/04/10 04:25:14;;;;;;;17.07;6.67;;;;;;;;;;5031720;28;20233;-50
2022/04/10 04:27:40;;;;;;;15.20;7.23;;;;;;;;;;5031480;28;20489;-48
2022/04/10 04:30:07;;;;;;;23.10;9.13;;;;;;;;;;5031506;28;20462;-48
2022/04/10 04:32:33;;;;;;;16.15;10.73;;;;;;;;;;5030997;28;20210;-49
2022/04/10 04:34:59;;;;;;;11.50;6.70;;;;;;;;;;5031320;28;20556;-49
2022/04/10 04:37:25;;;;;;;13.63;8.33;;;;;;;;;;5049089;28;20409;-45
2022/04/10 04:39:51;;;;;;;11.83;7.73;;;;;;;;;;5034610;28;20419;-46
2022/04/10 04:42:17;;;;;;;12.15;7.70;;;;;;;;;;5027749;28;20890;-46
2022/04/10 04:44:42;;;;;;;10.67;7.33;;;;;;;;;;5031308;28;20579;-46
2022/04/10 04:47:08;;;;;;;18.23;8.40;;;;;;;;;;5031531;28;20493;-48
2022/04/10 04:49:34;;;;;;;11.18;7.13;;;;;;;;;;5031162;28;20426;-47
2022/04/10 04:52:00;;;;;;;20.60;8.23;;;;;;;;;;5031416;28;20211;-50
2022/04/10 04:54:26;;;;;;;15.03;7.67;;;;;;;;;;5031425;28;20429;-50
2022/04/10 04:56:53;;;;;;;13.00;7.30;;;;;;;;;;5031577;28;20394;-50
2022/04/10 04:59:19;;;;;;;13.32;7.68;;;;;;;;;;5031399;28;20398;-48
2022/04/10 05:01:45;;;;;;;19.73;8.23;;;;;;;;;;5031171;28;20570;-50
2022/04/10 05:04:11;;;;;;;19.75;8.23;;;;;;;;;;5031312;28;20410;-48
2022/04/10 05:06:38;;;;;;;15.55;7.55;;;;;;;;;;5031602;28;20178;-49
2022/04/10 05:09:04;;;;;;;16.92;8.27;;;;;;;;;;5031470;28;20191;-48
2022/04/10 05:11:30;;;;;;;12.50;7.43;;;;;;;;;;5031279;28;20171;-49
2022/04/10 05:13:56;;;;;;;14.30;8.00;;;;;;;;;;5031220;28;20747;-48
2022/04/10 05:16:22;;;;;;;15.70;7.67;;;;;;;;;;5031285;28;20439;-48
2022/04/10 05:18:48;;;;;;;12.33;7.00;;;;;;;;;;5031320;28;20457;-50
2022/04/10 05:21:14;;;;;;;16.95;7.28;;;;;;;;;;5031126;28;20486;-49
2022/04/10 05:23:40;;;;;;;23.10;7.93;;;;;;;;;;5031067;28;20644;-50
2022/04/10 05:26:06;;;;;;;8.27;7.37;;;;;;;;;;5031281;28;20497;-50
2022/04/10 05:28:34;;;;;;;10.15;7.28;;;;;;;;;;5031159;28;20429;-50
2022/04/10 05:31:00;;;;;;;14.63;8.32;;;;;;;;;;5033060;28;20218;-49
2022/04/10 05:33:26;;;;;;;18.02;7.25;;;;;;;;;;5034519;28;20220;-48
2022/04/10 05:35:53;;;;;;;12.57;7.43;;;;;;;;;;5034864;28;20170;-49
2022/04/10 05:38:19;;;;;;;12.40;8.43;;;;;;;;;;5034689;28;20394;-50
2022/04/10 05:40:52;;;;;;;15.65;8.98;;;;;;;;;;5034307;28;20302;-49
2022/04/10 05:43:18;;;;;;;16.63;7.80;;;;;;;;;;5034420;28;20245;-49
2022/04/10 05:45:44;;;;;;;11.80;7.03;;;;;;;;;;5034389;28;20179;-48
2022/04/10 05:48:10;;;;;;;18.43;7.97;;;;;;;;;;5034400;28;20917;-51
2022/04/10 05:50:36;;;;;;;13.60;7.30;;;;;;;;;;5034146;28;20425;-50
2022/04/10 05:53:02;;;;;;;13.02;7.65;;;;;;;;;;5034143;28;20445;-50
2022/04/10 05:55:29;;;;;;;11.82;6.85;;;;;;;;;;5034250;28;20642;-49
2022/04/10 05:57:55;;;;;;;11.98;6.85;;;;;;;;;;5034296;28;20166;-50
2022/04/10 06:00:23;;;;;;;10.20;7.15;;;;;;;;;;5033959;28;20638;-49
2022/04/10 06:02:49;;;;;;;15.05;7.50;;;;;;;;;;5033968;28;20258;-48
2022/04/10 06:05:15;;;;;;;13.80;8.13;;;;;;;;;;5034119;28;20247;-50
2022/04/10 06:07:41;;;;;;;11.20;7.30;;;;;;;;;;5034033;28;20414;-47
2022/04/10 06:10:08;;;;;;;14.38;7.38;;;;;;;;;;5033833;28;20463;-49
2022/04/10 06:12:34;;;;;;;10.80;7.15;;;;;;;;;;5033756;28;20227;-48
2022/04/10 06:15:00;;;;;;;18.00;7.77;;;;;;;;;;5033821;28;20226;-48
2022/04/10 06:17:26;;;;;;;12.73;7.50;;;;;;;;;;5033906;28;20436;-48
2022/04/10 06:19:52;;;;;;;12.83;7.70;;;;;;;;;;5033603;28;20407;-48
2022/04/10 06:22:18;;;;;;;9.95;6.47;;;;;;;;;;5033700;28;20402;-48
2022/04/10 06:24:44;;;;;;;11.75;6.85;;;;;;;;;;5033727;28;20318;-47
2022/04/10 06:27:10;;;;;;;10.50;6.83;;;;;;;;;;5033800;28;20630;-48
2022/04/10 06:29:36;;;;;;;10.30;7.40;;;;;;;;;;5032095;28;20748;-48
2022/04/10 06:32:02;;;;;;;13.10;8.30;;;;;;;;;;5033441;28;20480;-49
2022/04/10 06:34:28;;;;;;;11.70;7.25;;;;;;;;;;5033341;28;20427;-49
2022/04/10 06:36:54;;;;;;;17.00;7.03;;;;;;;;;;5033536;28;20168;-50
2022/04/10 06:39:20;;;;;;;17.77;7.20;;;;;;;;;;5033298;28;20398;-49
2022/04/10 06:41:46;;;;;;;14.23;7.80;;;;;;;;;;5032800;28;20468;-50
2022/04/10 06:44:12;;;;;;;18.67;7.57;;;;;;;;;;5033031;28;20802;-49
2022/04/10 06:46:38;;;;;;;18.67;8.10;;;;;;;;;;5033457;28;20823;-48
2022/04/10 06:49:04;;;;;;;19.13;7.83;;;;;;;;;;5033052;28;20810;-48
2022/04/10 06:51:29;;;;;;;15.40;8.07;;;;;;;;;;5033002;28;20409;-50
2022/04/10 06:53:55;;;;;;;17.40;6.60;;;;;;;;;;5033007;28;20834;-49
2022/04/10 06:56:21;;;;;;;11.13;7.63;;;;;;;;;;5033160;28;20755;-49
2022/04/10 06:58:47;;;;;;;14.70;7.30;;;;;;;;;;5033037;28;20752;-49
2022/04/10 07:01:13;;;;;;;14.10;7.25;;;;;;;;;;5032823;28;20403;-48
2022/04/10 07:03:39;;;;;;;12.17;7.17;;;;;;;;;;5032911;28;20740;-49
2022/04/10 07:06:05;;;;;;;9.65;5.90;;;;;;;;;;5033011;28;20539;-49
2022/04/10 07:08:32;;;;;;;11.83;6.17;;;;;;;;;;5033401;28;20217;-46
2022/04/10 07:10:58;;;;;;;11.68;6.95;;;;;;;;;;5032627;28;20857;-48
2022/04/10 07:13:24;;;;;;;11.80;6.57;;;;;;;;;;5032602;28;20788;-46
2022/04/10 07:15:54;;;;;;;18.13;6.53;;;;;;;;;;5033057;28;20803;-46
2022/04/10 07:18:20;;;;;;;9.23;5.30;;;;;;;;;;5032854;28;20397;-46
2022/04/10 07:20:46;;;;;;;9.27;5.20;;;;;;;;;;5032556;28;20399;-46
2022/04/10 07:25:57;;;;;;;8.07;4.67;;;;;;;;;;5032389;28;20405;-46
2022/04/10 07:28:23;;;;;;;8.20;4.83;;;;;;;;;;5032566;28;20403;-46
2022/04/10 07:30:49;;;;;;;15.93;5.33;;;;;;;;;;5032367;28;20411;-46
2022/04/10 07:33:15;;;;;;;10.57;5.47;;;;;;;;;;5032214;28;20478;-46
2022/04/10 07:35:42;;;;;;;11.83;5.40;;;;;;;;;;5032335;28;20406;-46
2022/04/10 07:38:08;;;;;;;8.67;5.00;;;;;;;;;;5032274;28;20841;-49
2022/04/10 07:40:34;;;;;;;9.07;4.40;;;;;;;;;;5032084;28;20395;-47
2022/04/10 07:43:00;;;;;;;8.80;6.03;;;;;;;;;;5032057;28;20878;-46
2022/04/10 07:48:12;;;;;;;9.80;5.10;;;;;;;;;;5032471;28;20490;-46
2022/04/10 07:50:38;;;;;;;12.00;5.27;;;;;;;;;;5031854;28;20715;-47
2022/04/10 07:53:04;;;;;;;13.43;7.50;;;;;;;;;;5031101;28;21000;-46
2022/04/10 07:55:30;;;;;;;9.83;4.03;;;;;;;;;;5032052;28;20395;-46
2022/04/10 07:57:56;;;;;;;12.83;5.00;;;;;;;;;;5032112;28;20412;-46
2022/04/10 08:00:22;;;;;;;6.50;3.43;;;;;;;;;;5031879;28;20405;-46
2022/04/10 08:02:48;;;;;;;10.63;4.90;;;;;;;;;;5031858;28;20399;-47
2022/04/10 08:05:15;;;;;;;5.20;4.20;;;;;;;;;;5031980;28;20473;-48
2022/04/10 08:07:42;;;;;;;8.13;5.43;;;;;;;;;;5031928;28;20890;-47
2022/04/10 08:10:08;;;;;;;7.03;4.30;;;;;;;;;;5031688;28;20430;-46
2022/04/10 08:12:34;;;;;;;7.40;4.40;;;;;;;;;;5031680;28;20463;-50
2022/04/10 08:15:00;;;;;;;6.73;4.13;;;;;;;;;;5031827;28;20920;-51
2022/04/10 08:17:26;;;;;;;12.63;5.17;;;;;;;;;;5031836;28;20379;-50
2022/04/10 08:19:52;;;;;;;6.90;4.17;;;;;;;;;;5031400;28;20403;-46
2022/04/10 08:22:24;;;;;;;11.83;4.23;;;;;;;;;;5031628;28;20495;-46
2022/04/10 08:24:50;;;;;;;12.33;3.60;;;;;;;;;;5031642;28;20938;-46
2022/04/10 08:27:16;;;;;;;10.23;2.80;;;;;;;;;;5031676;28;20441;-46
2022/04/10 08:29:42;;;;;;;6.57;3.47;;;;;;;;;;5031499;28;20417;-46
2022/04/10 08:32:08;;;;;;;11.70;3.30;;;;;;;;;;5031685;28;20546;-46
2022/04/10 08:34:34;;;;;;;10.03;3.47;;;;;;;;;;5031558;28;20425;-46
2022/04/10 08:37:05;;;;;;;7.70;3.57;;;;;;;;;;5031647;28;20489;-46
2022/04/10 08:39:34;;;;;;;3.90;2.90;;;;;;;;;;5031501;28;20441;-46
2022/04/10 08:42:01;;;;;;;7.50;2.87;;;;;;;;;;5031479;28;20408;-47
2022/04/10 08:44:28;;;;;;;5.73;3.50;;;;;;;;;;5031596;28;20483;-46
2022/04/10 08:46:54;;;;;;;5.80;3.70;;;;;;;;;;5031587;28;20458;-45
2022/04/10 08:49:21;;;;;;;11.30;3.40;;;;;;;;;;5031258;28;20851;-46
2022/04/10 08:51:47;;;;;;;13.50;3.13;;;;;;;;;;5031882;28;20727;-46
2022/04/10 08:54:13;;;;;;;6.07;3.50;;;;;;;;;;5031607;28;20467;-46
2022/04/10 08:56:39;;;;;;;6.23;3.30;;;;;;;;;;5031464;28;20380;-46
2022/04/10 08:59:05;;;;;;;8.23;3.53;;;;;;;;;;5031534;28;20415;-46
2022/04/10 09:01:31;;;;;;;5.83;3.73;;;;;;;;;;5031306;28;20832;-47
2022/04/10 09:03:57;;;;;;;8.43;3.50;;;;;;;;;;5031756;28;20860;-48
2022/04/10 09:06:23;;;;;;;4.23;2.67;;;;;;;;;;5035249;28;20762;-50
2022/04/10 09:08:49;;;;;;;6.13;2.83;;;;;;;;;;5035227;28;20798;-46
2022/04/10 09:11:15;;;;;;;3.57;2.63;;;;;;;;;;5035028;28;20547;-49
2022/04/10 09:13:46;;;;;;;3.80;3.40;;;;;;;;;;5033744;28;21068;-46
2022/04/10 09:16:13;;;;;;;4.07;2.50;;;;;;;;;;5035191;28;20757;-47
2022/04/10 09:18:56;;;;;;;7.27;2.90;;;;;;;;;;5035030;28;20834;-46
2022/04/10 09:21:32;;;;;;;6.60;2.97;;;;;;;;;;5034714;28;20768;-45
2022/04/10 09:24:06;;;;;;;3.10;2.80;;;;;;;;;;5034522;28;20423;-49
2022/04/10 09:26:48;;;;;;;5.67;2.93;;;;;;;;;;5028287;28;20423;-46
2022/04/10 09:29:14;;;;;;;4.47;2.50;;;;;;;;;;5034173;28;20468;-46
2022/04/10 09:31:40;;;;;;;8.23;2.57;;;;;;;;;;5031426;28;20890;-50
2022/04/10 09:34:07;;;;;;;6.07;2.60;;;;;;;;;;5032596;28;20456;-48
2022/04/10 09:36:44;;;;;;;4.93;2.47;;;;;;;;;;5034185;28;20549;-48
2022/04/10 09:39:11;;;;;;;5.13;2.47;;;;;;;;;;5033975;28;20401;-52
2022/04/10 09:41:38;;;;;;;3.43;2.53;;;;;;;;;;5034506;28;20537;-46
2022/04/10 09:44:11;;;;;;;6.90;3.00;;;;;;;;;;5034317;28;20418;-45
2022/04/10 09:46:37;;;;;;;9.20;3.10;;;;;;;;;;5034414;28;20409;-45
2022/04/10 09:49:04;;;;;;;5.93;2.90;;;;;;;;;;5034220;28;20795;-46
2022/04/10 09:51:30;;;;;;;2.80;2.60;;;;;;;;;;5034039;28;20418;-49
2022/04/10 09:54:04;;;;;;;6.80;3.17;;;;;;;;;;5033966;28;20459;-45
2022/04/10 09:56:30;;;;;;;4.13;3.23;;;;;;;;;;5034114;28;20405;-46
2022/04/10 09:59:00;;;;;;;4.50;2.97;;;;;;;;;;5034129;28;20400;-45
2022/04/10 10:01:26;;;;;;;5.13;3.23;;;;;;;;;;5033965;28;20767;-45
2022/04/10 10:03:53;;;;;;;4.30;3.10;;;;;;;;;;5033918;28;20455;-46
2022/04/10 10:06:19;;;;;;;5.20;3.43;;;;;;;;;;5033955;28;20479;-45
2022/04/10 10:08:45;;;;;;;7.50;4.00;;;;;;;;;;5034028;28;20894;-46
2022/04/10 10:11:11;;;;;;;7.67;3.80;;;;;;;;;;5033650;28;20540;-51
2022/04/10 10:13:41;;;;;;;8.70;3.70;;;;;;;;;;5033770;28;20462;-52
2022/04/10 10:16:08;;;;;;;4.07;3.50;;;;;;;;;;5032996;28;20404;-52
2022/04/10 10:18:34;;;;;;;5.53;3.00;;;;;;;;;;5033702;28;20953;-53
2022/04/10 10:21:02;;;;;;;8.10;3.17;;;;;;;;;;5033428;28;20402;-51
2022/04/10 10:23:28;;;;;;;8.50;3.47;;;;;;;;;;5033818;28;20845;-51
2022/04/10 10:25:58;;;;;;;5.63;2.47;;;;;;;;;;5033805;28;20481;-52
2022/04/10 10:28:40;;;;;;;10.63;2.43;;;;;;;;;;5034188;28;20437;-51
2022/04/10 10:31:25;;;;;;;6.13;2.77;;;;;;;;;;5033462;28;20399;-52
2022/04/10 10:33:52;;;;;;;4.33;2.77;;;;;;;;;;5033561;28;20504;-52
2022/04/10 10:36:22;;;;;;;6.00;2.67;;;;;;;;;;5033414;28;20863;-52
2022/04/10 10:38:54;;;;;;;4.80;2.33;;;;;;;;;;5033307;28;20601;-51
2022/04/10 10:41:20;;;;;;;3.20;1.80;;;;;;;;;;5033199;28;20481;-50
2022/04/10 10:43:47;;;;;;;3.70;2.20;;;;;;;;;;5033054;28;20864;-52
2022/04/10 10:46:39;;;;;;;2.20;1.70;;;;;;;;;;5033347;28;20433;-50
2022/04/10 10:49:21;;;;;;;3.20;1.70;;;;;;;;;;5031196;28;20495;-51
2022/04/10 10:51:48;;;;;;;2.30;1.70;;;;;;;;;;5033089;28;20406;-50
2022/04/10 10:54:21;;;;;;;3.47;1.77;;;;;;;;;;5032825;28;20511;-50
2022/04/10 10:56:50;;;;;;;2.00;1.80;;;;;;;;;;5033124;28;20406;-51
2022/04/10 10:59:34;;;;;;;2.97;2.00;;;;;;;;;;5032883;28;20411;-50
2022/04/10 11:02:10;;;;;;;5.27;2.00;;;;;;;;;;5032923;28;20401;-52
2022/04/10 11:04:39;;;;;;;2.73;1.80;;;;;;;;;;5032675;28;20428;-51
2022/04/10 11:07:11;;;;;;;2.20;2.00;;;;;;;;;;5032826;28;20394;-50
2022/04/10 11:09:46;;;;;;;5.97;2.00;;;;;;;;;;5032716;28;20778;-50
2022/04/10 11:12:13;;;;;;;2.10;1.90;;;;;;;;;;5032683;28;20407;-52
2022/04/10 11:14:40;;;;;;;1.97;1.57;;;;;;;;;;5032656;28;20416;-51
2022/04/10 11:17:17;;;;;;;2.50;2.13;;;;;;;;;;5032480;28;20408;-51
2022/04/10 11:19:50;;;;;;;2.67;1.80;;;;;;;;;;5032389;28;20887;-52
2022/04/10 11:22:22;;;;;;;2.60;1.57;;;;;;;;;;5032446;28;20405;-52
2022/04/10 11:24:52;;;;;;;3.53;2.30;;;;;;;;;;5032454;28;20504;-50
2022/04/10 11:27:38;;;;;;;2.63;1.80;;;;;;;;;;5031937;28;20457;-49
2022/04/10 11:30:04;;;;;;;2.33;1.80;;;;;;;;;;5030424;28;20412;-51
2022/04/10 11:32:40;;;;;;;3.00;1.80;;;;;;;;;;5030384;28;20459;-50
2022/04/10 11:35:13;;;;;;;2.93;1.53;;;;;;;;;;5032019;28;20496;-50
2022/04/10 11:37:39;;;;;;;1.90;1.67;;;;;;;;;;5031119;28;20453;-50
2022/04/10 11:40:06;;;;;;;1.80;1.70;;;;;;;;;;5031618;28;20410;-50
2022/04/10 11:42:33;;;;;;;2.27;1.50;;;;;;;;;;5032190;28;20406;-52
2022/04/10 11:45:00;;;;;;;4.03;2.07;;;;;;;;;;5032186;28;20433;-50
2022/04/10 11:47:26;;;;;;;2.63;1.40;;;;;;;;;;5032147;28;20433;-51
2022/04/10 11:49:53;;;;;;;3.73;1.70;;;;;;;;;;5031823;28;20519;-51
2022/04/10 11:52:19;;;;;;;3.90;1.60;;;;;;;;;;5031908;28;20449;-51
2022/04/10 11:54:45;;;;;;;3.13;2.03;;;;;;;;;;5031968;28;20616;-52
2022/04/10 11:57:11;;;;;;;1.70;1.60;;;;;;;;;;5032124;28;20869;-52
2022/04/10 11:59:38;;;;;;;2.73;1.83;;;;;;;;;;5031901;28;20396;-50
2022/04/10 12:02:06;;;;;;;2.47;1.50;;;;;;;;;;5031968;28;20488;-50
2022/04/10 12:04:35;;;;;;;4.97;2.03;;;;;;;;;;5031888;28;20431;-47
2022/04/10 12:07:11;;;;;;;1.70;1.50;;;;;;;;;;5031906;28;20401;-47
2022/04/10 12:09:37;;;;;;;2.17;1.70;;;;;;;;;;5031862;28;20377;-49
2022/04/10 12:12:04;;;;;;;2.70;1.67;;;;;;;;;;5031791;28;20383;-48
2022/04/10 12:14:30;;;;;;;1.90;1.53;;;;;;;;;;5031878;28;20490;-47
2022/04/10 12:16:55;;;;;;;3.37;2.00;;;;;;;;;;5031876;28;20778;-50
2022/04/10 12:19:31;;;;;;;2.90;1.73;;;;;;;;;;5031651;28;20793;-48
2022/04/10 12:21:57;;;;;;;2.90;1.70;;;;;;;;;;5031659;28;20402;-46
2022/04/10 12:24:23;;;;;;;4.00;1.80;;;;;;;;;;5031714;28;20794;-45
2022/04/10 12:26:50;;;;;;;1.93;1.33;;;;;;;;;;5031789;28;20393;-46
2022/04/10 12:29:17;;;;;;;2.30;1.80;;;;;;;;;;5031635;28;20397;-46
2022/04/10 12:31:45;;;;;;;1.60;1.50;;;;;;;;;;5031632;28;20408;-47
2022/04/10 12:34:12;;;;;;;6.20;1.60;;;;;;;;;;5031376;28;20972;-48
2022/04/10 12:36:48;;;;;;;2.90;1.50;;;;;;;;;;5031664;28;20408;-46
2022/04/10 12:39:24;;;;;;;4.97;1.90;;;;;;;;;;5032653;28;20892;-46
2022/04/10 12:42:03;;;;;;;2.30;1.30;;;;;;;;;;5035649;28;20403;-46
2022/04/10 12:44:31;;;;;;;1.90;1.73;;;;;;;;;;5035591;28;20434;-51
2022/04/10 12:46:57;;;;;;;2.90;1.57;;;;;;;;;;5035707;28;20441;-46
2022/04/10 12:49:24;;;;;;;2.23;1.30;;;;;;;;;;5035349;28;20391;-46
2022/04/10 12:52:03;;;;;;;3.07;2.60;;;;;;;;;;5035609;28;20418;-46
2022/04/10 12:54:47;;;;;;;2.40;1.47;;;;;;;;;;5035490;28;20482;-49
2022/04/10 12:57:14;;;;;;;3.80;1.33;;;;;;;;;;5035396;28;20840;-46
2022/04/10 12:59:41;;;;;;;2.23;1.50;;;;;;;;;;5035230;28;20878;-47
2022/04/10 13:02:10;;;;;;;1.70;1.13;;;;;;;;;;5035390;28;20814;-47
2022/04/10 13:04:36;;;;;;;4.43;1.60;;;;;;;;;;5035262;28;20507;-47
2022/04/10 13:07:02;;;;;;;2.70;1.60;;;;;;;;;;5035336;28;20984;-48
2022/04/10 13:09:27;;;;;;;1.60;1.50;;;;;;;;;;5035585;28;20766;-50
2022/04/10 13:11:54;;;;;;;2.30;1.53;;;;;;;;;;5035119;28;20417;-46
2022/04/10 13:14:20;;;;;;;2.43;1.20;;;;;;;;;;5035070;28;20452;-47
2022/04/10 13:16:47;;;;;;;2.50;1.43;;;;;;;;;;5035163;28;20386;-46
2022/04/10 13:19:17;;;;;;;3.97;1.47;;;;;;;;;;5034837;28;20442;-47
2022/04/10 13:21:45;;;;;;;1.77;1.30;;;;;;;;;;5034671;28;20747;-46
2022/04/10 13:24:11;;;;;;;2.17;1.40;;;;;;;;;;5034704;28;20407;-48
2022/04/10 13:26:39;;;;;;;1.73;1.50;;;;;;;;;;5035156;28;20465;-46
2022/04/10 13:29:07;;;;;;;2.10;1.43;;;;;;;;;;5034730;28;20406;-46
2022/04/10 13:31:33;;;;;;;2.17;1.40;;;;;;;;;;5034635;28;20417;-46
2022/04/10 13:33:59;;;;;;;2.10;1.37;;;;;;;;;;5034503;28;20553;-46
2022/04/10 13:36:25;;;;;;;1.57;1.47;;;;;;;;;;5034684;28;20908;-47
2022/04/10 13:38:51;;;;;;;6.30;1.43;;;;;;;;;;5034556;28;20797;-46
2022/04/10 13:41:18;;;;;;;4.73;2.07;;;;;;;;;;5035369;28;20413;-53
2022/04/10 13:43:44;;;;;;;1.53;1.40;;;;;;;;;;5034500;28;20430;-52
2022/04/10 13:46:10;;;;;;;2.10;1.27;;;;;;;;;;5034493;28;20456;-52
2022/04/10 13:48:36;;;;;;;2.00;1.70;;;;;;;;;;5033912;28;20485;-52
2022/04/10 13:51:02;;;;;;;2.03;1.50;;;;;;;;;;5032831;28;20462;-52
2022/04/10 13:53:29;;;;;;;2.70;1.43;;;;;;;;;;5033268;28;20472;-52
2022/04/10 13:55:55;;;;;;;1.53;1.40;;;;;;;;;;5033122;28;20411;-52
2022/04/10 13:58:21;;;;;;;2.40;1.20;;;;;;;;;;5034248;28;20404;-52
2022/04/10 14:00:47;;;;;;;2.30;1.67;;;;;;;;;;5034054;28;20384;-51
2022/04/10 14:03:13;;;;;;;3.80;1.80;;;;;;;;;;5034068;28;20992;-52
2022/04/10 14:05:39;;;;;;;2.17;1.33;;;;;;;;;;5034149;28;20722;-52
2022/04/10 14:08:05;;;;;;;1.33;1.23;;;;;;;;;;5034118;28;20385;-52
2022/04/10 14:10:31;;;;;;;2.93;1.43;;;;;;;;;;5033874;28;20440;-52
2022/04/10 14:12:57;;;;;;;3.23;1.23;;;;;;;;;;5033836;28;20461;-52
2022/04/10 14:15:23;;;;;;;1.63;1.50;;;;;;;;;;5034037;28;20376;-51
2022/04/10 14:17:56;;;;;;;2.17;1.30;;;;;;;;;;5034010;28;20813;-51
2022/04/10 14:20:22;;;;;;;1.60;1.20;;;;;;;;;;5033592;28;20417;-51
2022/04/10 14:22:48;;;;;;;2.13;1.40;;;;;;;;;;5033787;28;20865;-51
2022/04/10 14:25:14;;;;;;;1.50;1.40;;;;;;;;;;5034083;28;20489;-52
2022/04/10 14:27:40;;;;;;;5.03;1.37;;;;;;;;;;5033859;28;20414;-51
2022/04/10 14:30:06;;;;;;;1.87;1.40;;;;;;;;;;5033540;28;20725;-50
2022/04/10 14:32:32;;;;;;;1.83;1.40;;;;;;;;;;5033536;28;20481;-51
2022/04/10 14:34:58;;;;;;;2.93;1.33;;;;;;;;;;5033463;28;20427;-51
2022/04/10 14:37:24;;;;;;;3.33;1.60;;;;;;;;;;5033615;28;20912;-52
2022/04/10 14:39:50;;;;;;;3.13;1.93;;;;;;;;;;5033382;28;20375;-51
2022/04/10 14:42:16;;;;;;;1.60;1.50;;;;;;;;;;5033451;28;20376;-52